Time;durP1;ratioP1;P1;durP2;ratioP2;P2;SDS_P1;SDS_P2;PMS_P1;PMS_P2;Temp;Humidity;BMP_temperature;BMP_pressure;BME280_temperature;BME280_humidity;BME280_pressure;Samples;Min_cycle;Max_cycle;Signal;HPM_P1;HPM_P2
2022/03/09 00:00:13;;;;;;;14.23;8.93;;;4.00;99.90;;;;;;6205574;23;20205;-75
2022/03/09 00:02:40;;;;;;;11.50;8.47;;;3.90;99.90;;;;;;6205510;23;20492;-77
2022/03/09 00:05:09;;;;;;;10.33;8.37;;;3.90;99.90;;;;;;6206173;23;20174;-77
2022/03/09 00:07:36;;;;;;;11.47;7.60;;;4.00;99.90;;;;;;6204415;23;20168;-77
2022/03/09 00:10:05;;;;;;;15.17;9.17;;;4.00;99.90;;;;;;6205974;23;20182;-77
2022/03/09 00:12:32;;;;;;;12.07;8.70;;;4.00;99.90;;;;;;6205974;23;20174;-76
2022/03/09 00:14:58;;;;;;;13.77;8.60;;;3.90;99.90;;;;;;6204346;23;20220;-76
2022/03/09 00:17:25;;;;;;;10.83;7.83;;;3.90;99.90;;;;;;6205580;23;20189;-76
2022/03/09 00:19:52;;;;;;;10.60;8.03;;;4.00;99.90;;;;;;6205125;23;20202;-76
2022/03/09 00:22:20;;;;;;;13.73;8.50;;;4.00;99.90;;;;;;6206142;23;20174;-75
2022/03/09 00:24:47;;;;;;;12.20;8.67;;;4.00;99.90;;;;;;6206289;23;20185;-75
2022/03/09 00:27:14;;;;;;;11.97;8.20;;;4.00;99.90;;;;;;6204769;23;20170;-75
2022/03/09 00:29:41;;;;;;;12.57;8.53;;;3.90;99.90;;;;;;6206274;23;20177;-77
2022/03/09 00:32:08;;;;;;;12.17;9.13;;;3.90;99.90;;;;;;6205753;23;20171;-78
2022/03/09 00:34:35;;;;;;;12.60;9.47;;;3.90;99.90;;;;;;6235188;23;20205;-75
2022/03/09 00:37:02;;;;;;;11.23;8.53;;;3.90;99.90;;;;;;6236940;23;20184;-78
2022/03/09 00:39:30;;;;;;;13.40;8.20;;;3.90;99.90;;;;;;6236199;23;20209;-77
2022/03/09 00:41:57;;;;;;;13.70;8.93;;;3.90;99.90;;;;;;6235385;23;20178;-76
2022/03/09 00:44:24;;;;;;;11.40;8.80;;;3.90;99.90;;;;;;6236258;23;20479;-78
2022/03/09 00:46:51;;;;;;;12.10;8.30;;;3.80;99.90;;;;;;6235756;23;20544;-78
2022/03/09 00:49:18;;;;;;;12.43;8.37;;;3.80;99.90;;;;;;6235790;23;20173;-79
2022/03/09 00:51:45;;;;;;;11.77;8.13;;;3.80;99.90;;;;;;6235206;23;20173;-77
2022/03/09 00:54:11;;;;;;;11.33;7.83;;;3.70;99.90;;;;;;6206315;23;20194;-76
2022/03/09 00:56:40;;;;;;;11.43;8.30;;;3.70;99.90;;;;;;6204948;23;20177;-76
2022/03/09 00:59:07;;;;;;;15.20;9.07;;;3.70;99.90;;;;;;6205746;23;20181;-78
2022/03/09 01:01:33;;;;;;;15.73;8.87;;;3.70;99.90;;;;;;6204680;23;20890;-76
2022/03/09 01:04:00;;;;;;;14.13;9.17;;;3.70;99.90;;;;;;6205488;23;20166;-77
2022/03/09 01:06:27;;;;;;;10.07;8.17;;;3.60;99.90;;;;;;6205927;23;20189;-74
2022/03/09 01:08:54;;;;;;;12.20;8.13;;;3.60;99.90;;;;;;6205599;23;20587;-75
2022/03/09 01:11:21;;;;;;;12.47;8.03;;;3.60;99.90;;;;;;6204709;23;20749;-77
2022/03/09 01:13:49;;;;;;;12.40;8.70;;;3.50;99.90;;;;;;6205427;23;20170;-77
2022/03/09 01:16:16;;;;;;;14.70;8.67;;;3.50;99.90;;;;;;6205355;23;20178;-76
2022/03/09 01:18:43;;;;;;;12.30;8.83;;;3.50;99.90;;;;;;6206387;23;20174;-76
2022/03/09 01:21:10;;;;;;;12.53;8.80;;;3.50;99.90;;;;;;6205194;23;20194;-74
2022/03/09 01:23:37;;;;;;;12.43;8.37;;;3.50;99.90;;;;;;6204084;23;20178;-74
2022/03/09 01:26:04;;;;;;;11.90;9.03;;;3.50;99.90;;;;;;6206251;23;20182;-78
2022/03/09 01:28:30;;;;;;;13.17;9.50;;;3.40;99.90;;;;;;6206294;23;20178;-76
2022/03/09 01:30:59;;;;;;;12.47;8.97;;;3.40;99.90;;;;;;6205573;23;20174;-78
2022/03/09 01:33:25;;;;;;;12.03;8.60;;;3.40;99.90;;;;;;6205924;23;20174;-77
2022/03/09 01:35:52;;;;;;;14.13;8.77;;;3.40;99.90;;;;;;6205625;23;20192;-76
2022/03/09 01:38:19;;;;;;;12.43;8.23;;;3.30;99.90;;;;;;6205345;23;20174;-77
2022/03/09 01:40:46;;;;;;;14.73;9.27;;;3.30;99.90;;;;;;6206281;23;20202;-77
2022/03/09 01:43:15;;;;;;;11.97;8.53;;;3.30;99.90;;;;;;6205661;23;20173;-75
2022/03/09 01:45:42;;;;;;;18.07;9.60;;;3.30;99.90;;;;;;6204846;23;20174;-77
2022/03/09 01:48:10;;;;;;;13.10;9.73;;;3.20;99.90;;;;;;6206689;23;20723;-76
2022/03/09 01:50:37;;;;;;;10.93;8.50;;;3.30;99.90;;;;;;6205230;23;20174;-76
2022/03/09 01:53:04;;;;;;;11.87;8.57;;;3.30;99.90;;;;;;6205402;23;20193;-76
2022/03/09 01:55:30;;;;;;;12.17;8.73;;;3.30;99.90;;;;;;6205150;23;20174;-77
2022/03/09 01:57:57;;;;;;;12.20;9.13;;;3.30;99.90;;;;;;6206613;23;20464;-77
2022/03/09 02:00:24;;;;;;;11.47;8.73;;;3.30;99.90;;;;;;6204308;23;20522;-76
2022/03/09 02:02:51;;;;;;;13.80;9.33;;;3.30;99.90;;;;;;6204814;23;20202;-76
2022/03/09 02:05:20;;;;;;;13.23;9.00;;;3.40;99.90;;;;;;6205299;23;20644;-76
2022/03/09 02:10:31;;;;;;;11.40;8.63;;;3.40;99.90;;;;;;6205320;23;20531;-77
2022/03/09 02:12:58;;;;;;;14.30;9.03;;;3.40;99.90;;;;;;6205520;23;20733;-78
2022/03/09 02:15:25;;;;;;;11.23;9.43;;;3.40;99.90;;;;;;6204861;23;20249;-77
2022/03/09 02:17:52;;;;;;;11.50;8.57;;;3.40;99.90;;;;;;6205730;23;20170;-77
2022/03/09 02:20:20;;;;;;;14.43;9.33;;;3.40;99.90;;;;;;6204277;23;20205;-76
2022/03/09 02:22:48;;;;;;;12.17;8.93;;;3.40;99.90;;;;;;6204908;23;20174;-76
2022/03/09 02:25:16;;;;;;;13.90;8.70;;;3.40;99.90;;;;;;6204530;23;20178;-79
2022/03/09 02:27:45;;;;;;;14.50;8.33;;;3.50;99.90;;;;;;6204253;23;20184;-77
2022/03/09 02:30:14;;;;;;;15.33;7.90;;;3.50;99.90;;;;;;6205785;23;20174;-77
2022/03/09 02:32:41;;;;;;;13.30;8.80;;;3.50;99.90;;;;;;6205078;23;20166;-78
2022/03/09 02:35:10;;;;;;;11.13;8.30;;;3.50;99.90;;;;;;6205236;23;20182;-78
2022/03/09 02:37:37;;;;;;;10.70;8.60;;;3.40;99.90;;;;;;6205046;23;20281;-78
2022/03/09 02:40:08;;;;;;;11.03;8.40;;;3.40;99.90;;;;;;6205410;23;20621;-77
2022/03/09 02:42:35;;;;;;;11.87;8.63;;;3.50;99.90;;;;;;6204704;23;20197;-77
2022/03/09 02:45:02;;;;;;;13.13;8.67;;;3.50;99.90;;;;;;6204480;23;20184;-78
2022/03/09 02:47:29;;;;;;;16.13;8.87;;;3.50;99.90;;;;;;6205374;23;20178;-77
2022/03/09 02:49:55;;;;;;;12.37;8.60;;;3.50;99.90;;;;;;6204172;23;20181;-77
2022/03/09 02:52:22;;;;;;;11.10;9.20;;;3.50;99.90;;;;;;6204787;23;20198;-77
2022/03/09 02:54:49;;;;;;;13.73;9.13;;;3.50;99.90;;;;;;6203433;23;20511;-77
2022/03/09 02:57:17;;;;;;;13.47;8.60;;;3.50;99.90;;;;;;6205304;23;20178;-76
2022/03/09 02:59:44;;;;;;;12.60;9.27;;;3.50;99.90;;;;;;6205685;23;20174;-76
2022/03/09 03:02:11;;;;;;;11.40;8.43;;;3.50;99.90;;;;;;6203501;23;20198;-75
2022/03/09 03:04:38;;;;;;;14.63;9.50;;;3.50;99.90;;;;;;6204805;23;20881;-79
2022/03/09 03:07:05;;;;;;;11.93;8.53;;;3.50;99.90;;;;;;6205300;23;20467;-77
2022/03/09 03:09:31;;;;;;;12.73;8.77;;;3.50;99.90;;;;;;6203900;23;20567;-76
2022/03/09 03:11:58;;;;;;;12.63;8.57;;;3.50;99.90;;;;;;6204726;23;20184;-75
2022/03/09 03:14:26;;;;;;;11.57;8.30;;;3.50;99.90;;;;;;6204926;23;20174;-75
2022/03/09 03:16:53;;;;;;;10.70;8.27;;;3.50;99.90;;;;;;6204237;23;20166;-75
2022/03/09 03:19:20;;;;;;;13.33;9.20;;;3.50;99.90;;;;;;6204119;23;20167;-75
2022/03/09 03:21:47;;;;;;;12.10;8.33;;;3.50;99.90;;;;;;6204309;23;20198;-77
2022/03/09 03:24:14;;;;;;;10.37;7.83;;;3.40;99.90;;;;;;6204247;23;20575;-75
2022/03/09 03:26:40;;;;;;;11.93;8.07;;;3.40;99.90;;;;;;6204770;23;20177;-75
2022/03/09 03:29:07;;;;;;;13.17;8.60;;;3.40;99.90;;;;;;6205878;23;20178;-78
2022/03/09 03:31:35;;;;;;;10.23;8.13;;;3.40;99.90;;;;;;6204951;23;20170;-76
2022/03/09 03:34:02;;;;;;;12.63;7.90;;;3.30;99.90;;;;;;6205446;23;20170;-77
2022/03/09 03:36:29;;;;;;;11.40;8.33;;;3.30;99.90;;;;;;6207296;23;20178;-77
2022/03/09 03:38:56;;;;;;;12.93;8.57;;;3.30;99.90;;;;;;6206460;23;20174;-77
2022/03/09 03:41:23;;;;;;;11.80;8.07;;;3.30;99.90;;;;;;6206321;23;20526;-77
2022/03/09 03:43:49;;;;;;;11.83;8.50;;;3.30;99.90;;;;;;6206455;23;20188;-77
2022/03/09 03:46:16;;;;;;;11.53;8.67;;;3.30;99.90;;;;;;6206421;23;20173;-77
2022/03/09 03:48:44;;;;;;;13.20;8.27;;;3.30;99.90;;;;;;6206501;23;20185;-77
2022/03/09 03:51:11;;;;;;;13.33;8.57;;;3.30;99.90;;;;;;6206495;23;20174;-77
2022/03/09 03:53:38;;;;;;;13.87;8.70;;;3.20;99.90;;;;;;6207450;23;20198;-80
2022/03/09 03:56:06;;;;;;;11.23;8.37;;;3.20;99.90;;;;;;6207161;23;20185;-76
2022/03/09 03:58:33;;;;;;;10.07;7.53;;;3.20;99.90;;;;;;6206437;23;20170;-76
2022/03/09 04:00:59;;;;;;;12.53;8.33;;;3.20;99.90;;;;;;6207445;23;20202;-81
2022/03/09 04:03:26;;;;;;;10.70;8.37;;;3.20;99.90;;;;;;6206932;23;20178;-78
2022/03/09 04:05:54;;;;;;;10.60;7.83;;;3.20;99.90;;;;;;6205678;23;20402;-76
2022/03/09 04:08:21;;;;;;;16.97;9.13;;;3.20;99.90;;;;;;6205958;23;20448;-76
2022/03/09 04:10:48;;;;;;;12.60;8.60;;;3.20;99.90;;;;;;6206633;23;20166;-74
2022/03/09 04:13:15;;;;;;;12.60;9.40;;;3.20;99.90;;;;;;6205671;23;20178;-76
2022/03/09 04:15:41;;;;;;;11.47;8.90;;;3.10;99.90;;;;;;6206288;23;20442;-75
2022/03/09 04:18:08;;;;;;;11.67;9.03;;;3.10;99.90;;;;;;6206783;23;20178;-77
2022/03/09 04:20:35;;;;;;;13.20;9.13;;;3.10;99.90;;;;;;6206168;23;20224;-76
2022/03/09 04:23:08;;;;;;;11.80;8.50;;;3.10;99.90;;;;;;6205642;23;20185;-76
2022/03/09 04:25:35;;;;;;;10.20;7.90;;;3.10;99.90;;;;;;6206453;23;20185;-76
2022/03/09 04:28:02;;;;;;;12.23;8.87;;;3.10;99.90;;;;;;6205625;23;20174;-75
2022/03/09 04:30:29;;;;;;;11.50;8.90;;;3.10;99.90;;;;;;6206641;23;20583;-75
2022/03/09 04:32:56;;;;;;;12.93;8.00;;;3.00;99.90;;;;;;6205855;23;20189;-76
2022/03/09 04:35:23;;;;;;;13.30;7.93;;;3.00;99.90;;;;;;6205773;23;20184;-76
2022/03/09 04:37:50;;;;;;;10.57;7.63;;;3.00;99.90;;;;;;6206265;23;20476;-77
2022/03/09 04:40:18;;;;;;;14.57;8.97;;;2.90;99.90;;;;;;6205300;23;20197;-76
2022/03/09 04:42:45;;;;;;;13.30;8.73;;;2.90;99.90;;;;;;6206163;23;20193;-78
2022/03/09 04:45:12;;;;;;;13.63;7.97;;;2.90;99.90;;;;;;6205808;23;20167;-79
2022/03/09 04:47:39;;;;;;;11.67;8.10;;;2.80;99.90;;;;;;6204474;23;20177;-76
2022/03/09 04:50:06;;;;;;;11.67;8.27;;;2.80;99.90;;;;;;6206940;23;20181;-78
2022/03/09 04:52:33;;;;;;;12.17;8.73;;;2.80;99.90;;;;;;6207340;23;20622;-80
2022/03/09 04:55:00;;;;;;;10.17;7.97;;;2.80;99.90;;;;;;6207447;23;20181;-79
2022/03/09 04:57:28;;;;;;;10.63;7.67;;;2.80;99.90;;;;;;6207218;23;20181;-75
2022/03/09 04:59:55;;;;;;;13.50;9.13;;;2.80;99.90;;;;;;6206975;23;20170;-80
2022/03/09 05:02:22;;;;;;;11.03;8.10;;;2.80;99.90;;;;;;6206613;23;20213;-79
2022/03/09 05:04:48;;;;;;;11.03;7.83;;;2.80;99.90;;;;;;6209189;23;20176;-79
2022/03/09 05:07:15;;;;;;;11.07;7.97;;;2.80;99.90;;;;;;6206853;23;20189;-78
2022/03/09 05:09:42;;;;;;;13.17;8.13;;;2.80;99.90;;;;;;6206655;23;20174;-77
2022/03/09 05:12:09;;;;;;;13.87;8.57;;;2.80;99.90;;;;;;6214072;23;20185;-78
2022/03/09 05:14:37;;;;;;;13.50;8.37;;;2.80;99.90;;;;;;6216451;23;20184;-79
2022/03/09 05:17:04;;;;;;;11.77;7.83;;;2.80;99.90;;;;;;6217183;23;20226;-77
2022/03/09 05:19:31;;;;;;;10.37;7.97;;;2.90;99.90;;;;;;6217250;23;20174;-77
2022/03/09 05:21:58;;;;;;;13.13;8.03;;;2.90;99.90;;;;;;6212257;23;20197;-74
2022/03/09 05:24:25;;;;;;;11.40;8.23;;;2.90;99.90;;;;;;6207665;23;20173;-78
2022/03/09 05:26:52;;;;;;;10.17;7.40;;;2.90;99.90;;;;;;6208383;23;20177;-80
2022/03/09 05:29:19;;;;;;;10.70;7.57;;;2.90;99.90;;;;;;6206602;23;20178;-76
2022/03/09 05:31:47;;;;;;;12.80;8.57;;;2.80;99.90;;;;;;6206488;23;20185;-78
2022/03/09 05:34:14;;;;;;;13.83;8.17;;;2.80;99.90;;;;;;6205466;23;20178;-77
2022/03/09 05:36:42;;;;;;;9.87;7.53;;;2.80;99.90;;;;;;6204837;23;20185;-77
2022/03/09 05:39:09;;;;;;;14.83;7.97;;;2.80;99.90;;;;;;6205992;23;20174;-77
2022/03/09 05:41:36;;;;;;;13.70;9.07;;;2.80;99.90;;;;;;6205103;23;20194;-77
2022/03/09 05:44:02;;;;;;;12.90;9.13;;;2.70;99.90;;;;;;6205071;23;20289;-77
2022/03/09 05:46:30;;;;;;;11.27;8.27;;;2.70;99.90;;;;;;6205095;23;20878;-75
2022/03/09 05:48:58;;;;;;;12.70;8.43;;;2.70;99.90;;;;;;6206076;23;20181;-78
2022/03/09 05:51:25;;;;;;;12.67;8.50;;;2.70;99.90;;;;;;6205284;23;20170;-78
2022/03/09 05:53:52;;;;;;;12.37;8.73;;;2.60;99.90;;;;;;6205807;23;20198;-78
2022/03/09 05:56:19;;;;;;;11.57;8.57;;;2.60;99.90;;;;;;6205892;23;20889;-77
2022/03/09 05:58:46;;;;;;;12.93;8.47;;;2.60;99.90;;;;;;6205945;23;20178;-79
2022/03/09 06:01:12;;;;;;;13.87;8.33;;;2.60;99.90;;;;;;6205237;23;20216;-79
2022/03/09 06:03:40;;;;;;;12.87;9.10;;;2.50;99.90;;;;;;6205377;23;20173;-76
2022/03/09 06:06:08;;;;;;;11.83;9.10;;;2.50;99.90;;;;;;6204876;23;20177;-77
2022/03/09 06:08:35;;;;;;;11.10;8.00;;;2.50;99.90;;;;;;6204559;23;20706;-75
2022/03/09 06:11:02;;;;;;;13.40;8.77;;;2.50;99.90;;;;;;6204554;23;20178;-75
2022/03/09 06:13:29;;;;;;;10.97;8.27;;;2.40;99.90;;;;;;6204483;23;20182;-77
2022/03/09 06:15:55;;;;;;;10.77;7.87;;;2.40;99.90;;;;;;6204272;23;20185;-77
2022/03/09 06:18:22;;;;;;;12.17;8.73;;;2.40;99.90;;;;;;6205420;23;20173;-78
2022/03/09 06:20:50;;;;;;;11.67;8.00;;;2.30;99.90;;;;;;6205197;23;20205;-76
2022/03/09 06:23:19;;;;;;;12.37;8.43;;;2.30;99.90;;;;;;6205598;23;20208;-75
2022/03/09 06:25:45;;;;;;;14.97;8.87;;;2.30;99.90;;;;;;6204404;23;20882;-75
2022/03/09 06:28:12;;;;;;;11.43;8.60;;;2.20;99.90;;;;;;6205354;23;20221;-76
2022/03/09 06:30:39;;;;;;;12.73;8.40;;;2.20;99.90;;;;;;6204295;23;20166;-76
2022/03/09 06:33:06;;;;;;;12.00;8.53;;;2.20;99.90;;;;;;6204527;23;20945;-79
2022/03/09 06:35:33;;;;;;;12.37;8.20;;;2.20;99.90;;;;;;6205578;23;20199;-78
2022/03/09 06:38:00;;;;;;;11.13;8.37;;;2.20;99.90;;;;;;6205797;23;20174;-79
2022/03/09 06:40:28;;;;;;;12.77;8.93;;;2.20;99.90;;;;;;6204984;23;20181;-78
2022/03/09 06:42:55;;;;;;;14.67;8.57;;;2.30;99.90;;;;;;6206073;23;20279;-76
2022/03/09 06:45:22;;;;;;;15.90;9.13;;;2.20;99.90;;;;;;6205293;23;20181;-80
2022/03/09 06:47:49;;;;;;;12.07;8.03;;;2.30;99.90;;;;;;6204144;23;20182;-76
2022/03/09 06:50:16;;;;;;;16.97;8.70;;;2.30;99.90;;;;;;6205626;23;20178;-76
2022/03/09 06:52:42;;;;;;;12.57;8.53;;;2.30;99.90;;;;;;6206459;23;20190;-77
2022/03/09 06:55:12;;;;;;;12.90;8.97;;;2.30;99.90;;;;;;6204632;23;20174;-79
2022/03/09 06:57:41;;;;;;;13.00;9.50;;;2.30;99.90;;;;;;6205811;23;20470;-77
2022/03/09 07:00:11;;;;;;;13.23;8.60;;;2.40;99.90;;;;;;6205719;23;20180;-77
2022/03/09 07:02:38;;;;;;;12.30;9.23;;;2.40;99.90;;;;;;6204709;23;20279;-78
2022/03/09 07:05:06;;;;;;;12.47;9.00;;;2.40;99.90;;;;;;6205610;23;20181;-77
2022/03/09 07:07:33;;;;;;;10.83;8.17;;;2.50;99.90;;;;;;6205129;23;20174;-78
2022/03/09 07:10:02;;;;;;;12.47;8.97;;;2.50;99.90;;;;;;6204229;23;20248;-76
2022/03/09 07:12:29;;;;;;;11.63;8.70;;;2.60;99.90;;;;;;6207211;23;20177;-76
2022/03/09 07:14:57;;;;;;;14.20;8.57;;;2.60;99.90;;;;;;6206748;23;20184;-77
2022/03/09 07:17:24;;;;;;;12.47;8.57;;;2.70;99.90;;;;;;6206776;23;20181;-77
2022/03/09 07:19:51;;;;;;;13.03;7.93;;;2.70;99.90;;;;;;6206551;23;20177;-75
2022/03/09 07:22:17;;;;;;;14.33;9.00;;;2.70;99.90;;;;;;6205781;23;20568;-76
2022/03/09 07:24:44;;;;;;;10.63;8.37;;;2.70;99.90;;;;;;6206450;23;20181;-75
2022/03/09 07:27:11;;;;;;;14.50;9.17;;;2.70;99.90;;;;;;6206937;23;20384;-80
2022/03/09 07:29:38;;;;;;;13.43;8.90;;;2.70;99.90;;;;;;6206459;23;20174;-77
2022/03/09 07:32:08;;;;;;;11.20;8.13;;;2.70;99.90;;;;;;6205627;23;20181;-78
2022/03/09 07:34:36;;;;;;;12.53;8.87;;;2.80;99.90;;;;;;6206370;23;20170;-75
2022/03/09 07:37:03;;;;;;;12.60;8.57;;;2.80;99.90;;;;;;6205693;23;20173;-77
2022/03/09 07:39:30;;;;;;;13.63;8.70;;;2.80;99.90;;;;;;6206631;23;20185;-77
2022/03/09 07:41:57;;;;;;;11.87;8.70;;;2.80;99.90;;;;;;6206519;23;20201;-77
2022/03/09 07:44:24;;;;;;;13.83;9.53;;;2.90;99.90;;;;;;6205339;23;20266;-76
2022/03/09 07:46:51;;;;;;;13.20;8.37;;;3.00;99.90;;;;;;6206543;23;20913;-76
2022/03/09 07:49:20;;;;;;;12.30;8.67;;;3.20;99.90;;;;;;6207104;23;20181;-79
2022/03/09 07:51:47;;;;;;;13.70;8.80;;;3.40;99.90;;;;;;6206207;23;20170;-79
2022/03/09 07:54:14;;;;;;;13.80;8.63;;;3.50;99.90;;;;;;6206617;23;20197;-77
2022/03/09 07:56:41;;;;;;;13.50;8.93;;;3.60;99.90;;;;;;6206650;23;20181;-78
2022/03/09 07:59:08;;;;;;;12.17;8.37;;;3.70;99.90;;;;;;6206496;23;20174;-77
2022/03/09 08:01:35;;;;;;;13.90;9.50;;;3.80;99.90;;;;;;6174918;23;20686;-79
2022/03/09 08:04:02;;;;;;;16.00;8.93;;;3.90;99.90;;;;;;6206333;23;20193;-79
2022/03/09 08:06:31;;;;;;;14.23;9.13;;;4.00;99.90;;;;;;6206558;23;20571;-77
2022/03/09 08:08:58;;;;;;;14.23;9.13;;;4.10;99.90;;;;;;6206991;23;20244;-78
2022/03/09 08:11:26;;;;;;;13.60;8.87;;;4.20;99.90;;;;;;6205305;23;20781;-78
2022/03/09 08:13:54;;;;;;;12.53;9.03;;;4.30;99.90;;;;;;6206622;23;20253;-78
2022/03/09 08:16:20;;;;;;;12.33;8.97;;;4.40;99.90;;;;;;6200974;23;20185;-79
2022/03/09 08:18:47;;;;;;;12.33;8.43;;;4.50;99.90;;;;;;6207717;23;20170;-77
2022/03/09 08:21:14;;;;;;;13.60;9.10;;;4.50;99.90;;;;;;6207848;23;20433;-80
2022/03/09 08:23:42;;;;;;;14.90;9.67;;;4.60;99.90;;;;;;6209002;23;20177;-80
2022/03/09 08:26:09;;;;;;;13.07;9.73;;;4.70;99.90;;;;;;6207329;23;20170;-79
2022/03/09 08:28:36;;;;;;;14.50;9.87;;;4.80;99.90;;;;;;6207703;23;20170;-80
2022/03/09 08:31:03;;;;;;;13.97;9.97;;;4.90;99.90;;;;;;6207122;23;20486;-78
2022/03/09 08:33:30;;;;;;;15.63;10.10;;;5.00;99.90;;;;;;6206760;23;20181;-78
2022/03/09 08:35:57;;;;;;;14.63;9.43;;;5.10;99.90;;;;;;6206794;23;20185;-78
2022/03/09 08:38:23;;;;;;;13.17;9.73;;;5.20;99.90;;;;;;6207013;23;20166;-77
2022/03/09 08:40:52;;;;;;;14.63;10.23;;;5.30;99.90;;;;;;6205639;23;20185;-75
2022/03/09 08:43:18;;;;;;;14.70;9.77;;;5.40;99.90;;;;;;6205244;23;20208;-78
2022/03/09 08:45:46;;;;;;;17.53;10.57;;;5.50;99.90;;;;;;6205779;23;20760;-76
2022/03/09 08:48:13;;;;;;;17.20;10.20;;;5.60;99.90;;;;;;6205369;23;20182;-76
2022/03/09 08:50:40;;;;;;;15.23;10.17;;;5.70;99.90;;;;;;6207213;23;20508;-76
2022/03/09 08:53:07;;;;;;;15.63;10.60;;;5.70;99.90;;;;;;6203933;23;20591;-77
2022/03/09 08:55:33;;;;;;;15.57;10.23;;;5.80;99.90;;;;;;6205126;23;20174;-77
2022/03/09 08:58:02;;;;;;;16.00;10.40;;;5.90;99.90;;;;;;6205521;23;20181;-77
2022/03/09 09:00:29;;;;;;;12.70;9.30;;;6.00;99.90;;;;;;6204764;23;20617;-79
2022/03/09 09:02:55;;;;;;;16.17;11.07;;;6.10;99.90;;;;;;6206225;23;20209;-77
2022/03/09 09:05:23;;;;;;;17.40;10.40;;;6.10;99.90;;;;;;6204678;23;20501;-75
2022/03/09 09:07:50;;;;;;;16.00;10.20;;;6.20;99.90;;;;;;6205096;23;20513;-76
2022/03/09 09:10:17;;;;;;;17.03;11.43;;;6.30;99.90;;;;;;6205814;23;20174;-77
2022/03/09 09:12:46;;;;;;;14.70;10.13;;;6.40;99.90;;;;;;6206043;23;20166;-76
2022/03/09 09:15:14;;;;;;;15.90;9.80;;;6.60;99.90;;;;;;6203649;23;20575;-76
2022/03/09 09:17:41;;;;;;;16.60;10.27;;;6.70;99.90;;;;;;6204677;23;20166;-78
2022/03/09 09:20:09;;;;;;;15.10;10.33;;;6.80;99.90;;;;;;6204259;23;20415;-80
2022/03/09 09:22:36;;;;;;;18.97;12.10;;;6.90;99.90;;;;;;6204312;23;20468;-77
2022/03/09 09:25:04;;;;;;;15.90;9.77;;;6.90;99.90;;;;;;6206126;23;20189;-77
2022/03/09 09:27:31;;;;;;;15.13;10.83;;;7.10;99.90;;;;;;6200882;23;20238;-76
2022/03/09 09:29:58;;;;;;;18.63;11.53;;;7.20;99.90;;;;;;6203018;23;20541;-77
2022/03/09 09:32:26;;;;;;;18.20;11.20;;;7.30;99.90;;;;;;6202116;23;20853;-76
2022/03/09 09:34:53;;;;;;;16.30;11.37;;;7.50;99.90;;;;;;6202353;23;20817;-76
2022/03/09 09:37:20;;;;;;;18.20;11.37;;;7.60;99.90;;;;;;6202161;23;20640;-76
2022/03/09 09:39:46;;;;;;;19.90;11.70;;;7.70;99.90;;;;;;6202724;23;20197;-77
2022/03/09 09:42:15;;;;;;;17.50;12.60;;;7.80;99.90;;;;;;6202635;23;20194;-76
2022/03/09 09:44:43;;;;;;;19.97;12.20;;;7.90;99.90;;;;;;6201674;23;20280;-75
2022/03/09 09:47:14;;;;;;;20.43;12.93;;;8.10;99.90;;;;;;6203682;23;20321;-80
2022/03/09 09:49:42;;;;;;;17.23;12.43;;;8.20;99.90;;;;;;6205167;23;20882;-79
2022/03/09 09:52:10;;;;;;;17.70;12.10;;;8.30;99.90;;;;;;6207650;23;20178;-80
2022/03/09 09:54:37;;;;;;;17.33;11.73;;;8.50;99.90;;;;;;6206774;23;20166;-79
2022/03/09 09:57:05;;;;;;;17.23;11.77;;;8.60;99.90;;;;;;6205972;23;20174;-80
2022/03/09 09:59:32;;;;;;;17.77;13.13;;;8.70;99.90;;;;;;6205458;23;20166;-80
2022/03/09 10:01:59;;;;;;;20.17;13.27;;;8.90;99.90;;;;;;6206554;23;20229;-81
2022/03/09 10:04:26;;;;;;;18.40;13.03;;;9.10;99.90;;;;;;6204983;23;20177;-82
2022/03/09 10:06:54;;;;;;;20.13;12.93;;;9.20;99.90;;;;;;6206655;23;20524;-79
2022/03/09 10:09:21;;;;;;;21.50;13.50;;;9.40;99.90;;;;;;6206111;23;20174;-79
2022/03/09 10:11:50;;;;;;;18.33;13.43;;;9.50;99.90;;;;;;6205383;23;20228;-77
2022/03/09 10:14:18;;;;;;;17.53;13.10;;;9.50;99.90;;;;;;6204710;23;20489;-79
2022/03/09 10:17:03;;;;;;;19.57;13.33;;;9.60;99.90;;;;;;6205148;23;20178;-77
2022/03/09 10:19:31;;;;;;;19.07;13.67;;;9.80;99.90;;;;;;6203900;23;20169;-76
2022/03/09 10:21:59;;;;;;;19.40;13.10;;;10.00;99.90;;;;;;6205265;23;20181;-76
2022/03/09 10:24:35;;;;;;;20.00;14.23;;;10.00;99.90;;;;;;6205187;23;20166;-76
2022/03/09 10:27:02;;;;;;;20.77;14.10;;;10.20;99.90;;;;;;6204674;23;20190;-77
2022/03/09 10:29:29;;;;;;;21.47;13.53;;;10.40;99.90;;;;;;6205526;23;20174;-77
2022/03/09 10:31:59;;;;;;;18.67;13.73;;;10.50;99.90;;;;;;6205471;23;20178;-78
2022/03/09 10:34:29;;;;;;;19.80;13.37;;;10.70;99.90;;;;;;6204292;23;20240;-77
2022/03/09 10:36:59;;;;;;;20.73;13.77;;;10.80;99.90;;;;;;6204968;23;20216;-77
2022/03/09 10:39:27;;;;;;;21.97;14.73;;;11.00;99.90;;;;;;6205496;23;20178;-77
2022/03/09 10:41:54;;;;;;;19.47;13.53;;;11.20;99.90;;;;;;6205439;23;20170;-79
2022/03/09 10:44:40;;;;;;;20.17;14.50;;;11.30;99.90;;;;;;6206104;23;20446;-77
2022/03/09 10:47:07;;;;;;;24.47;14.70;;;11.30;99.90;;;;;;6207007;23;20170;-80
2022/03/09 10:49:34;;;;;;;21.20;14.93;;;11.40;99.90;;;;;;6208077;23;20181;-79
2022/03/09 10:52:03;;;;;;;23.40;14.93;;;11.60;99.90;;;;;;6207021;23;20178;-78
2022/03/09 10:54:34;;;;;;;24.13;15.27;;;11.70;99.90;;;;;;6205990;23;20202;-78
2022/03/09 10:57:06;;;;;;;21.07;14.37;;;11.80;99.90;;;;;;6207239;23;20170;-76
2022/03/09 10:59:49;;;;;;;23.70;14.67;;;12.00;99.90;;;;;;6206289;23;20334;-77
2022/03/09 11:02:19;;;;;;;25.73;15.30;;;12.10;99.90;;;;;;6205891;23;20229;-78
2022/03/09 11:05:07;;;;;;;21.20;15.00;;;12.00;99.90;;;;;;6207742;23;20189;-76
2022/03/09 11:07:36;;;;;;;22.40;15.63;;;12.20;99.90;;;;;;6206432;23;20170;-76
2022/03/09 11:10:04;;;;;;;22.60;15.90;;;12.30;99.90;;;;;;6206286;23;20174;-76
2022/03/09 11:12:31;;;;;;;26.50;16.57;;;12.50;99.90;;;;;;6206666;23;20170;-77
2022/03/09 11:14:58;;;;;;;24.80;16.73;;;12.60;99.90;;;;;;6205644;23;20273;-79
2022/03/09 11:17:25;;;;;;;26.33;16.47;;;12.60;99.90;;;;;;6207388;23;20484;-77
2022/03/09 11:19:52;;;;;;;24.17;16.10;;;12.60;99.90;;;;;;6207671;23;20174;-78
2022/03/09 11:22:18;;;;;;;22.93;16.10;;;12.40;99.90;;;;;;6206716;23;20174;-79
2022/03/09 11:24:48;;;;;;;26.60;17.53;;;12.40;99.90;;;;;;6206840;23;20175;-77
2022/03/09 11:27:16;;;;;;;27.27;16.07;;;12.40;99.90;;;;;;6207048;23;20178;-77
2022/03/09 11:29:44;;;;;;;26.60;17.03;;;12.40;99.90;;;;;;6205991;23;20590;-80
2022/03/09 11:32:14;;;;;;;24.83;16.43;;;12.60;99.90;;;;;;6207426;23;20198;-76
2022/03/09 11:34:42;;;;;;;24.63;15.77;;;12.70;99.90;;;;;;6206907;23;20205;-76
2022/03/09 11:37:11;;;;;;;25.10;17.03;;;12.80;99.90;;;;;;6207094;23;20441;-80
2022/03/09 11:39:39;;;;;;;24.47;16.10;;;12.80;99.90;;;;;;6206820;23;20581;-76
2022/03/09 11:42:34;;;;;;;23.00;16.67;;;13.00;99.90;;;;;;6206546;23;20182;-75
2022/03/09 11:45:30;;;;;;;26.77;16.43;;;13.10;99.90;;;;;;6206617;23;20174;-78
2022/03/09 11:48:00;;;;;;;24.07;16.33;;;13.20;99.90;;;;;;6206702;23;20302;-76
2022/03/09 11:50:28;;;;;;;27.37;17.60;;;13.40;99.90;;;;;;6204996;23;20180;-76
2022/03/09 11:52:59;;;;;;;23.57;15.73;;;13.30;99.90;;;;;;6206034;23;20189;-76
2022/03/09 11:55:26;;;;;;;27.50;17.83;;;13.40;99.90;;;;;;6205901;23;20171;-79
2022/03/09 11:58:09;;;;;;;27.53;17.30;;;13.50;99.90;;;;;;6205640;23;20181;-78
2022/03/09 12:00:37;;;;;;;23.70;15.43;;;13.50;99.90;;;;;;6205788;23;20284;-79
2022/03/09 12:03:04;;;;;;;22.63;15.73;;;13.60;99.90;;;;;;6205506;23;20821;-79
2022/03/09 12:05:40;;;;;;;24.83;16.73;;;13.60;99.90;;;;;;6206302;23;20181;-77
2022/03/09 12:08:09;;;;;;;26.03;16.77;;;13.80;99.90;;;;;;6206312;23;20170;-78
2022/03/09 12:10:59;;;;;;;22.00;16.03;;;13.80;99.90;;;;;;6205935;23;20174;-77
2022/03/09 12:13:33;;;;;;;28.87;18.00;;;13.80;99.90;;;;;;6201053;23;20178;-76
2022/03/09 12:16:12;;;;;;;25.43;17.10;;;13.80;99.90;;;;;;6204499;23;20210;-80
2022/03/09 12:18:40;;;;;;;25.03;17.07;;;13.90;99.90;;;;;;6203173;23;20452;-76
2022/03/09 12:21:09;;;;;;;23.47;16.90;;;13.90;99.90;;;;;;6204033;23;20186;-79
2022/03/09 12:23:56;;;;;;;24.77;17.53;;;13.90;99.90;;;;;;6204266;23;20205;-79
2022/03/09 12:26:39;;;;;;;28.33;18.03;;;13.80;99.90;;;;;;6203251;23;20537;-80
2022/03/09 12:29:34;;;;;;;27.80;17.77;;;13.80;99.90;;;;;;6205085;23;20162;-79
2022/03/09 12:32:02;;;;;;;26.57;17.83;;;13.80;99.90;;;;;;6206304;23;20201;-77
2022/03/09 12:34:30;;;;;;;27.03;18.57;;;13.90;99.90;;;;;;6207034;23;20174;-77
2022/03/09 12:36:57;;;;;;;26.70;18.63;;;13.80;99.90;;;;;;6206206;23;20185;-78
2022/03/09 12:39:26;;;;;;;30.37;18.53;;;13.80;99.90;;;;;;6205006;23;20185;-78
2022/03/09 12:41:55;;;;;;;27.33;18.57;;;13.90;99.90;;;;;;6206656;23;20181;-82
2022/03/09 12:44:23;;;;;;;28.00;17.27;;;13.80;99.90;;;;;;6207539;23;20221;-82
2022/03/09 12:46:52;;;;;;;28.60;18.07;;;13.90;99.90;;;;;;6208500;23;20200;-81